Aroma, Indiana
Current Conditions -  °F | °C
As of 7:55 AM on Thursday 30 Oct 2014 (Local Time) from KTYQ Reporting Station
Clear Clear  
Wind Chill: 32°   Ceiling: Unl
Heat Index: 32°   Visibility: 10mi
Dew Point: 29°   Wind: 0mph
Humidity: 90%   Direction: NA
Pressure: 30.16"   Gusts: NA
Location:  40.1832°N, 85.9359°W
Report Text: KTYQ 301155Z AUTO 00000KT 10SM CLR 00/M02 A3016 RMK AO2 T10011016 10053 21004
Loading
Personal Weather Stations






























Interactive Weather Map
Tropical Storm Tracking
New forecast layout! Learn more

10-Day Weather Forecast

Advertisements
Track Severe Weather on mobile